Time;durP1;ratioP1;P1;durP2;ratioP2;P2;SDS_P1;SDS_P2;PMS_P1;PMS_P2;Temp;Humidity;BMP_temperature;BMP_pressure;BME280_temperature;BME280_humidity;BME280_pressure;Samples;Min_cycle;Max_cycle;Signal;HPM_P1;HPM_P2
2023/09/30 00:03:45;;;;;;;0.20;0.00;;;;;;;16.17;100.00;102416.88;10364166;28;20077;-78
2023/09/30 00:08:47;;;;;;;14.25;0.30;;;;;;;16.47;100.00;102420.22;10378722;28;20105;-78
2023/09/30 00:13:49;;;;;;;0.00;0.00;;;;;;;17.01;100.00;102413.78;10366487;28;20083;-78
2023/09/30 00:18:50;;;;;;;1.65;0.10;;;;;;;16.96;100.00;102420.59;10382704;28;20050;-78
2023/09/30 00:23:52;;;;;;;0.85;0.52;;;;;;;16.78;100.00;102427.09;10357651;28;20054;-78
2023/09/30 00:28:54;;;;;;;0.05;0.05;;;;;;;16.50;100.00;102395.16;10364089;28;20060;-78
2023/09/30 00:33:56;;;;;;;0.05;0.05;;;;;;;17.03;100.00;102422.47;10362851;28;20042;-78
2023/09/30 00:38:59;;;;;;;0.30;0.20;;;;;;;16.99;100.00;102431.06;10362363;28;20050;-78
2023/09/30 00:44:00;;;;;;;0.00;0.00;;;;;;;17.07;100.00;102424.34;10343549;28;20117;-78
2023/09/30 00:49:02;;;;;;;0.90;0.30;;;;;;;16.56;100.00;102420.47;10368629;28;20153;-78
2023/09/30 00:54:05;;;;;;;0.25;0.20;;;;;;;16.65;100.00;102422.41;10358940;28;20074;-78
2023/09/30 00:59:07;;;;;;;0.00;0.00;;;;;;;16.53;100.00;102424.69;10348808;28;20143;-78
2023/09/30 01:04:09;;;;;;;0.47;0.10;;;;;;;16.99;100.00;102420.66;10353390;28;20060;-78
2023/09/30 01:09:12;;;;;;;0.00;0.00;;;;;;;17.15;100.00;102431.44;10339034;28;20058;-78
2023/09/30 01:14:28;;;;;;;0.00;0.00;;;;;;;16.89;100.00;102439.47;10339509;28;20154;-78
2023/09/30 01:19:29;;;;;;;0.10;0.10;;;;;;;16.61;100.00;102441.38;10343641;28;20049;-78
2023/09/30 01:24:38;;;;;;;0.03;0.03;;;;;;;16.45;100.00;102447.94;10358143;28;20077;-79
2023/09/30 01:29:41;;;;;;;0.20;0.20;;;;;;;16.50;100.00;102457.59;10351255;28;20038;-77
2023/09/30 01:34:44;;;;;;;0.45;0.15;;;;;;;16.52;100.00;102464.56;10350447;28;20069;-78
2023/09/30 01:39:45;;;;;;;0.10;0.10;;;;;;;16.59;100.00;102458.69;10377199;28;20085;-78
2023/09/30 01:44:47;;;;;;;0.30;0.20;;;;;;;16.68;100.00;102465.88;10360284;28;20113;-78
2023/09/30 01:49:49;;;;;;;0.00;0.00;;;;;;;15.98;100.00;102436.28;10347458;28;20547;-78
2023/09/30 01:54:51;;;;;;;0.68;0.63;;;;;;;16.49;100.00;102450.63;10358219;28;20045;-78
2023/09/30 01:59:53;;;;;;;1.05;0.32;;;;;;;16.54;100.00;102468.97;10359485;28;20050;-78
2023/09/30 02:04:55;;;;;;;0.00;0.00;;;;;;;15.67;100.00;102455.28;10354612;28;20053;-78
2023/09/30 02:09:57;;;;;;;1.27;0.25;;;;;;;15.26;100.00;102441.91;10371520;28;20066;-78
2023/09/30 02:14:59;;;;;;;0.55;0.43;;;;;;;16.20;100.00;102451.56;10346907;28;20035;-78
2023/09/30 02:20:05;;;;;;;0.20;0.10;;;;;;;16.42;100.00;102448.69;10349594;28;20422;-78
2023/09/30 02:25:07;;;;;;;0.08;0.05;;;;;;;15.94;100.00;102454.34;10345819;28;20045;-78
2023/09/30 02:30:10;;;;;;;0.10;0.10;;;;;;;16.09;100.00;102443.47;10343321;28;20048;-78
2023/09/30 02:35:15;;;;;;;1.75;0.70;;;;;;;15.79;100.00;102434.84;10331394;28;20097;-78
2023/09/30 02:40:18;;;;;;;0.10;0.10;;;;;;;16.20;100.00;102457.66;10341052;28;20050;-78
2023/09/30 02:45:19;;;;;;;0.52;0.28;;;;;;;16.23;100.00;102460.38;10326187;28;20500;-78
2023/09/30 02:50:21;;;;;;;0.35;0.10;;;;;;;15.09;100.00;102439.63;10347930;28;20113;-78
2023/09/30 02:55:23;;;;;;;1.08;0.73;;;;;;;15.26;100.00;102432.41;10338279;28;20035;-78
2023/09/30 03:00:25;;;;;;;2.10;0.38;;;;;;;15.58;100.00;102439.41;10321689;28;20092;-78
2023/09/30 03:05:32;;;;;;;1.85;0.50;;;;;;;16.01;100.00;102443.28;10338392;28;20050;-78
2023/09/30 03:10:34;;;;;;;0.28;0.20;;;;;;;16.36;100.00;102452.88;10333970;28;20132;-78
2023/09/30 03:15:36;;;;;;;0.22;0.13;;;;;;;16.45;100.00;102455.72;10334869;28;20447;-79
2023/09/30 03:20:40;;;;;;;1.08;0.28;;;;;;;16.46;100.00;102440.16;10350484;28;20058;-78
2023/09/30 03:25:42;;;;;;;0.15;0.03;;;;;;;16.39;100.00;102433.03;10334132;28;20660;-79
2023/09/30 03:30:44;;;;;;;0.40;0.22;;;;;;;15.74;100.00;102438.13;10327819;28;20057;-79
2023/09/30 03:35:48;;;;;;;0.00;0.00;;;;;;;16.03;100.00;102444.22;10344848;28;20141;-79
2023/09/30 03:40:50;;;;;;;0.25;0.20;;;;;;;16.30;100.00;102453.59;10346108;28;20402;-78
2023/09/30 03:45:53;;;;;;;0.98;0.45;;;;;;;16.14;100.00;102445.38;10327155;28;20405;-79
2023/09/30 03:50:55;;;;;;;0.20;0.20;;;;;;;16.28;100.00;102450.06;10325824;28;20485;-79
2023/09/30 03:55:56;;;;;;;0.38;0.15;;;;;;;16.06;100.00;102439.06;10326563;28;20065;-79
2023/09/30 04:01:00;;;;;;;2.08;0.98;;;;;;;16.14;100.00;102440.16;10317368;28;20058;-79
2023/09/30 04:06:05;;;;;;;0.00;0.00;;;;;;;16.69;100.00;102447.69;10328112;28;20080;-79
2023/09/30 04:11:06;;;;;;;0.10;0.10;;;;;;;16.75;100.00;102453.03;10325163;28;20085;-79
2023/09/30 04:16:08;;;;;;;1.08;0.13;;;;;;;16.16;100.00;102435.91;10326760;28;20049;-79
2023/09/30 04:21:10;;;;;;;0.60;0.25;;;;;;;16.17;100.00;102437.66;10330838;28;20054;-79
2023/09/30 04:26:13;;;;;;;0.30;0.30;;;;;;;16.32;100.00;102449.31;10340793;28;20043;-79
2023/09/30 04:31:15;;;;;;;0.90;0.40;;;;;;;16.57;100.00;102457.78;10308189;28;20061;-79
2023/09/30 04:36:17;;;;;;;0.88;0.40;;;;;;;16.33;100.00;102458.88;10344043;28;20057;-79
2023/09/30 04:41:19;;;;;;;0.85;0.50;;;;;;;16.46;100.00;102450.56;10312220;28;20074;-79
2023/09/30 04:46:23;;;;;;;1.90;1.13;;;;;;;16.01;100.00;102435.47;10324444;28;20042;-79
2023/09/30 04:51:25;;;;;;;2.80;2.13;;;;;;;16.59;100.00;102448.28;10307419;28;20085;-79
2023/09/30 04:56:27;;;;;;;1.25;0.70;;;;;;;16.38;100.00;102452.06;10337844;28;20074;-79
2023/09/30 05:01:29;;;;;;;0.68;0.60;;;;;;;16.64;100.00;102457.97;10322208;28;20050;-79
2023/09/30 05:06:33;;;;;;;3.92;1.33;;;;;;;16.66;100.00;102460.59;10339586;28;20078;-78
2023/09/30 05:11:35;;;;;;;1.73;1.00;;;;;;;16.72;100.00;102458.13;10322287;28;20429;-79
2023/09/30 05:16:37;;;;;;;2.30;1.38;;;;;;;16.15;100.00;102454.94;10327146;28;20509;-79
2023/09/30 05:21:38;;;;;;;0.90;0.57;;;;;;;16.09;100.00;102459.97;10321985;28;20438;-79
2023/09/30 05:26:40;;;;;;;4.57;1.75;;;;;;;16.15;100.00;102464.47;10352059;28;20458;-79
2023/09/30 05:31:42;;;;;;;1.15;0.45;;;;;;;15.98;100.00;102456.16;10320695;28;20054;-79
2023/09/30 05:36:44;;;;;;;2.15;1.27;;;;;;;15.75;100.00;102458.94;10345440;28;20436;-79
2023/09/30 05:41:46;;;;;;;1.42;1.08;;;;;;;15.96;100.00;102458.72;10355354;28;20488;-79
2023/09/30 05:46:48;;;;;;;1.38;0.95;;;;;;;16.10;100.00;102453.03;10352466;28;20402;-79
2023/09/30 05:51:50;;;;;;;0.68;0.68;;;;;;;15.95;100.00;102446.56;10328425;28;20137;-79
2023/09/30 05:56:52;;;;;;;0.65;0.45;;;;;;;16.09;100.00;102456.47;10324268;28;20045;-79
2023/09/30 06:01:53;;;;;;;2.97;1.40;;;;;;;15.98;100.00;102463.97;10340149;28;20049;-79
2023/09/30 06:06:55;;;;;;;1.55;1.20;;;;;;;16.38;100.00;102488.50;10334540;28;20042;-79
2023/09/30 06:11:57;;;;;;;3.25;1.25;;;;;;;16.26;100.00;102480.38;10332341;28;20046;-79
2023/09/30 06:16:59;;;;;;;3.30;1.38;;;;;;;16.41;100.00;102488.59;10336659;28;20042;-79
2023/09/30 06:22:03;;;;;;;0.68;0.68;;;;;;;16.31;100.00;102481.38;10350161;28;20052;-79
2023/09/30 06:27:05;;;;;;;0.63;0.63;;;;;;;16.88;100.00;102494.97;10333639;28;20053;-79
2023/09/30 06:32:07;;;;;;;0.90;0.68;;;;;;;16.96;100.00;102506.50;10335892;28;20054;-79
2023/09/30 06:37:09;;;;;;;1.17;0.82;;;;;;;17.11;100.00;102504.28;10336134;28;20046;-79
2023/09/30 06:42:10;;;;;;;1.60;0.85;;;;;;;17.44;100.00;102508.53;10335353;28;20046;-79
2023/09/30 06:47:12;;;;;;;1.33;0.88;;;;;;;17.18;100.00;102504.41;10338986;28;20050;-79
2023/09/30 06:52:13;;;;;;;5.47;0.75;;;;;;;17.32;100.00;102518.66;10348408;28;20525;-79
2023/09/30 06:57:15;;;;;;;1.45;1.35;;;;;;;17.24;100.00;102517.56;10336992;28;20433;-79
2023/09/30 07:02:17;;;;;;;3.53;1.73;;;;;;;18.38;100.00;102520.06;10345059;28;20490;-79
2023/09/30 07:07:18;;;;;;;10.68;0.63;;;;;;;17.53;100.00;102528.69;10341214;28;20050;-79
2023/09/30 07:12:20;;;;;;;1.30;1.10;;;;;;;18.15;100.00;102539.59;10340994;28;20293;-79
2023/09/30 07:17:22;;;;;;;2.95;1.67;;;;;;;18.08;100.00;102541.22;10359716;28;20077;-79
2023/09/30 07:22:25;;;;;;;0.45;0.45;;;;;;;17.97;100.00;102546.22;10352451;28;20065;-79
2023/09/30 07:27:44;;;;;;;2.80;1.42;;;;;;;18.86;100.00;102556.63;10366061;28;20121;-79
2023/09/30 07:32:47;;;;;;;2.97;0.77;;;;;;;19.13;100.00;102565.81;10357291;28;20125;-79
2023/09/30 07:37:51;;;;;;;2.45;1.25;;;;;;;19.68;100.00;102564.94;10346133;28;20039;-79
2023/09/30 07:42:54;;;;;;;1.52;0.70;;;;;;;19.22;100.00;102568.59;10364425;28;20145;-80
2023/09/30 07:47:58;;;;;;;4.80;1.73;;;;;;;18.86;100.00;102570.56;10351664;28;20066;-80
2023/09/30 07:53:00;;;;;;;1.15;0.90;;;;;;;19.20;100.00;102578.13;10352709;28;20046;-80
2023/09/30 07:58:03;;;;;;;1.15;0.75;;;;;;;20.90;100.00;102593.50;10348935;28;20070;-80
2023/09/30 08:03:06;;;;;;;2.03;1.30;;;;;;;20.27;100.00;102592.78;10357015;28;20057;-80
2023/09/30 08:08:07;;;;;;;2.88;1.20;;;;;;;20.10;100.00;102597.78;10354124;28;20054;-78
2023/09/30 08:13:09;;;;;;;0.77;0.55;;;;;;;21.34;100.00;102593.88;10370085;28;20041;-79
2023/09/30 08:18:11;;;;;;;1.80;1.20;;;;;;;21.63;100.00;102609.00;10333439;28;20077;-80
2023/09/30 08:23:13;;;;;;;2.08;0.73;;;;;;;21.52;100.00;102609.75;10351392;28;20054;-80
2023/09/30 08:28:14;;;;;;;1.27;1.08;;;;;;;20.73;100.00;102608.19;10348670;28;20085;-79
2023/09/30 08:33:16;;;;;;;0.57;0.35;;;;;;;22.01;100.00;102610.94;10342395;28;20045;-80
2023/09/30 08:38:18;;;;;;;2.92;1.65;;;;;;;22.61;100.00;102602.47;10355403;28;20038;-79
2023/09/30 08:43:27;;;;;;;1.17;0.95;;;;;;;21.96;100.00;102603.09;10331406;28;20070;-80
2023/09/30 08:48:32;;;;;;;0.90;0.52;;;;;;;23.04;100.00;102584.16;10338941;28;20138;-80
2023/09/30 08:53:35;;;;;;;1.20;0.43;;;;;;;22.74;100.00;102578.00;10308518;28;20054;-79
2023/09/30 08:58:37;;;;;;;0.68;0.50;;;;;;;22.16;100.00;102587.41;10318401;28;20562;-80
2023/09/30 09:03:39;;;;;;;1.85;1.00;;;;;;;21.71;100.00;102586.28;10336742;28;20042;-80
2023/09/30 09:08:42;;;;;;;0.57;0.40;;;;;;;22.13;100.00;102597.00;10327980;28;20046;-79
2023/09/30 09:13:55;;;;;;;0.82;0.47;;;;;;;22.16;100.00;102600.53;10357036;28;20077;-80
2023/09/30 09:18:57;;;;;;;2.90;0.90;;;;;;;23.06;100.00;102587.63;10383903;28;20049;-80
2023/09/30 09:23:59;;;;;;;0.35;0.20;;;;;;;22.88;100.00;102591.13;10357220;28;20114;-80
2023/09/30 09:29:03;;;;;;;0.32;0.30;;;;;;;23.56;100.00;102582.41;10369526;28;20046;-79
2023/09/30 09:34:14;;;;;;;1.23;0.70;;;;;;;23.57;100.00;102592.00;10359000;28;20050;-78
2023/09/30 09:39:16;;;;;;;0.55;0.40;;;;;;;23.71;100.00;102592.91;10388496;28;20050;-79
2023/09/30 09:44:21;;;;;;;0.47;0.43;;;;;;;23.21;100.00;102605.22;10355762;28;20080;-77
2023/09/30 09:49:25;;;;;;;0.88;0.17;;;;;;;25.25;100.00;102614.06;10388674;28;20073;-78
2023/09/30 09:54:29;;;;;;;0.00;0.00;;;;;;;25.24;100.00;102628.13;10356849;28;20049;-78
2023/09/30 09:59:32;;;;;;;0.98;0.63;;;;;;;24.42;100.00;102614.59;10371676;28;20041;-77
2023/09/30 10:04:33;;;;;;;0.20;0.20;;;;;;;24.68;100.00;102623.28;10389038;28;20057;-78
2023/09/30 10:10:01;;;;;;;0.73;0.32;;;;;;;24.23;100.00;102630.50;10372961;28;20056;-78
2023/09/30 10:15:25;;;;;;;0.73;0.40;;;;;;;24.55;100.00;102618.91;10379589;28;20048;-77
2023/09/30 10:20:30;;;;;;;0.20;0.20;;;;;;;23.60;100.00;102636.75;10364261;28;20085;-79
2023/09/30 10:25:36;;;;;;;0.17;0.17;;;;;;;22.74;100.00;102634.91;10379162;28;20041;-78
2023/09/30 10:30:38;;;;;;;1.75;0.28;;;;;;;24.82;100.00;102641.63;10392546;28;20492;-77
2023/09/30 10:35:39;;;;;;;0.57;0.38;;;;;;;25.45;100.00;102639.41;10392258;28;20079;-77
2023/09/30 10:40:41;;;;;;;2.38;0.43;;;;;;;25.85;100.00;102624.94;10392512;28;20093;-77
2023/09/30 10:45:45;;;;;;;2.00;1.23;;;;;;;25.03;100.00;102622.16;10377666;28;20068;-78
2023/09/30 10:50:51;;;;;;;1.23;0.30;;;;;;;25.60;100.00;102601.47;10393783;28;20050;-78
2023/09/30 10:55:58;;;;;;;0.22;0.22;;;;;;;25.24;100.00;102604.41;10393965;28;20034;-78
2023/09/30 11:01:00;;;;;;;0.00;0.00;;;;;;;24.42;100.00;102593.53;10377074;28;20489;-77
2023/09/30 11:06:03;;;;;;;0.45;0.38;;;;;;;24.93;100.00;102586.19;10376511;28;20046;-77
2023/09/30 11:11:14;;;;;;;0.35;0.20;;;;;;;25.26;100.00;102588.56;10392607;28;20050;-78
2023/09/30 11:16:16;;;;;;;0.40;0.30;;;;;;;25.24;100.00;102595.63;10378784;28;20120;-77
2023/09/30 11:21:18;;;;;;;0.00;0.00;;;;;;;25.79;100.00;102594.22;10393243;28;20080;-76
2023/09/30 11:26:32;;;;;;;1.33;0.55;;;;;;;23.83;100.00;102601.63;10382122;28;20057;-77
2023/09/30 11:31:37;;;;;;;0.00;0.00;;;;;;;24.23;100.00;102604.16;10377659;28;20489;-77
2023/09/30 11:36:46;;;;;;;0.40;0.30;;;;;;;23.73;100.00;102608.66;10377074;28;20061;-79
2023/09/30 11:41:48;;;;;;;0.00;0.00;;;;;;;23.71;100.00;102595.53;10392459;28;20080;-79
2023/09/30 11:46:52;;;;;;;0.47;0.22;;;;;;;23.83;100.00;102588.47;10392012;28;20052;-78
2023/09/30 11:51:55;;;;;;;0.03;0.00;;;;;;;24.24;100.00;102579.56;10391282;28;20077;-78
2023/09/30 11:56:58;;;;;;;0.30;0.28;;;;;;;24.21;100.00;102579.59;10374659;28;20050;-78
2023/09/30 12:02:00;;;;;;;0.10;0.10;;;;;;;25.70;100.00;102562.66;10391292;28;20057;-78
2023/09/30 12:07:06;;;;;;;0.32;0.15;;;;;;;25.41;100.00;102551.50;10390294;28;20482;-77
2023/09/30 12:12:14;;;;;;;1.30;0.40;;;;;;;26.17;100.00;102555.94;10374038;28;20057;-79
2023/09/30 12:17:16;;;;;;;0.90;0.90;;;;;;;25.17;100.00;102557.88;10375346;28;20501;-79
2023/09/30 12:22:18;;;;;;;0.30;0.30;;;;;;;25.61;100.00;102553.94;10390131;28;20066;-78
2023/09/30 12:27:19;;;;;;;0.80;0.43;;;;;;;24.21;100.00;102553.25;10389309;28;20046;-77
2023/09/30 12:32:21;;;;;;;0.52;0.20;;;;;;;24.48;100.00;102559.22;10390341;28;20049;-78
2023/09/30 12:37:22;;;;;;;0.30;0.25;;;;;;;24.29;100.00;102561.09;10388785;28;20050;-78
2023/09/30 12:42:24;;;;;;;0.00;0.00;;;;;;;24.24;100.00;102547.94;10390031;28;20065;-77
2023/09/30 12:47:26;;;;;;;0.00;0.00;;;;;;;24.11;100.00;102547.16;10373072;28;20390;-78
2023/09/30 12:52:27;;;;;;;1.13;0.30;;;;;;;24.14;100.00;102538.38;10356589;28;20053;-78
2023/09/30 12:57:29;;;;;;;1.65;0.20;;;;;;;23.82;100.00;102520.91;10372623;28;20092;-79
2023/09/30 13:02:31;;;;;;;1.27;0.13;;;;;;;24.61;100.00;102502.94;10360651;28;20049;-78
2023/09/30 13:07:33;;;;;;;0.13;0.13;;;;;;;25.04;100.00;102509.63;10374862;28;20494;-78
2023/09/30 13:12:35;;;;;;;0.20;0.20;;;;;;;25.42;100.00;102507.56;10372397;28;20049;-78
2023/09/30 13:17:36;;;;;;;0.15;0.05;;;;;;;25.09;100.00;102509.59;10388623;28;20543;-80
2023/09/30 13:22:38;;;;;;;0.20;0.10;;;;;;;25.97;100.00;102512.13;10372223;28;20041;-78
2023/09/30 13:27:40;;;;;;;0.10;0.10;;;;;;;25.34;100.00;102512.84;10373181;28;20046;-78
2023/09/30 13:32:42;;;;;;;0.00;0.00;;;;;;;24.32;100.00;102498.75;10372493;28;20046;-78
2023/09/30 13:37:43;;;;;;;0.10;0.00;;;;;;;24.17;100.00;102491.81;10389629;28;20053;-77
2023/09/30 13:42:46;;;;;;;0.32;0.10;;;;;;;24.63;100.00;102511.69;10371431;28;20046;-78
2023/09/30 13:47:48;;;;;;;0.20;0.20;;;;;;;23.98;100.00;102493.69;10392710;28;20050;-78
2023/09/30 13:52:50;;;;;;;0.10;0.10;;;;;;;25.48;100.00;102499.56;10379344;28;20104;-78
2023/09/30 13:57:51;;;;;;;0.03;0.03;;;;;;;24.24;100.00;102490.91;10395390;28;20065;-78
2023/09/30 14:02:53;;;;;;;0.25;0.20;;;;;;;25.32;100.00;102497.06;10394640;28;20050;-78
2023/09/30 14:07:55;;;;;;;0.40;0.10;;;;;;;25.51;100.00;102502.16;10358372;28;20506;-78
2023/09/30 14:12:57;;;;;;;1.02;0.35;;;;;;;24.58;100.00;102484.53;10358132;28;20072;-78
2023/09/30 14:17:59;;;;;;;0.40;0.10;;;;;;;24.51;100.00;102483.69;10377112;28;20042;-78
2023/09/30 14:23:01;;;;;;;0.52;0.13;;;;;;;24.39;100.00;102484.66;10393760;28;20104;-78
2023/09/30 14:28:03;;;;;;;0.30;0.10;;;;;;;23.77;100.00;102468.31;10393911;28;20108;-77
2023/09/30 14:33:05;;;;;;;1.98;0.55;;;;;;;24.78;100.00;102465.06;10393448;28;20057;-78
2023/09/30 14:38:08;;;;;;;0.10;0.00;;;;;;;24.32;100.00;102456.59;10393297;28;20041;-78
2023/09/30 14:43:09;;;;;;;0.10;0.08;;;;;;;24.54;100.00;102466.97;10393259;28;20050;-78
2023/09/30 14:48:11;;;;;;;0.00;0.00;;;;;;;24.93;100.00;102474.59;10393276;28;20140;-77
2023/09/30 14:53:13;;;;;;;1.45;0.38;;;;;;;23.89;100.00;102465.63;10392602;28;20045;-78
2023/09/30 14:58:14;;;;;;;0.85;0.20;;;;;;;23.91;100.00;102461.22;10375237;28;20042;-78
2023/09/30 15:03:16;;;;;;;0.00;0.00;;;;;;;24.05;100.00;102458.53;10336316;28;20054;-78
2023/09/30 15:08:18;;;;;;;0.10;0.10;;;;;;;24.04;100.00;102459.44;10352249;28;20474;-77
2023/09/30 15:13:20;;;;;;;0.80;0.30;;;;;;;23.61;100.00;102454.34;10335999;28;20145;-77
2023/09/30 15:18:21;;;;;;;0.75;0.30;;;;;;;23.38;100.00;102439.53;10383707;28;20033;-77
2023/09/30 15:23:23;;;;;;;0.10;0.10;;;;;;;23.20;100.00;102431.69;10375427;28;20507;-77
2023/09/30 15:28:25;;;;;;;0.15;0.15;;;;;;;22.96;100.00;102441.34;10359507;28;20053;-78
2023/09/30 15:33:28;;;;;;;0.93;0.47;;;;;;;23.20;100.00;102434.31;10391681;28;20074;-77
2023/09/30 15:38:29;;;;;;;0.13;0.13;;;;;;;23.40;100.00;102437.78;10391453;28;20041;-78
2023/09/30 15:43:36;;;;;;;0.68;0.57;;;;;;;23.54;100.00;102440.34;10375919;28;20041;-77
2023/09/30 15:48:37;;;;;;;0.00;0.00;;;;;;;23.91;100.00;102434.03;10375853;28;20041;-78
2023/09/30 15:53:39;;;;;;;0.00;0.00;;;;;;;24.03;100.00;102433.97;10345943;28;20061;-78
2023/09/30 15:58:41;;;;;;;0.38;0.20;;;;;;;23.94;100.00;102438.44;10363912;28;20046;-77
2023/09/30 16:03:43;;;;;;;0.00;0.00;;;;;;;23.68;100.00;102447.31;10390915;28;20054;-77
2023/09/30 16:08:45;;;;;;;0.00;0.00;;;;;;;23.72;100.00;102438.50;10373943;28;20041;-78
2023/09/30 16:13:46;;;;;;;0.60;0.35;;;;;;;23.55;100.00;102441.22;10390676;28;20046;-78
2023/09/30 16:18:48;;;;;;;0.00;0.00;;;;;;;23.52;100.00;102446.47;10374071;28;20083;-78
2023/09/30 16:23:50;;;;;;;2.45;0.13;;;;;;;23.36;100.00;102438.66;10357775;28;20053;-78
2023/09/30 16:28:51;;;;;;;0.20;0.20;;;;;;;22.53;100.00;102446.59;10389892;28;20053;-77
2023/09/30 16:33:53;;;;;;;0.10;0.10;;;;;;;22.07;100.00;102450.03;10374003;28;20510;-77
2023/09/30 16:38:55;;;;;;;0.10;0.10;;;;;;;22.92;100.00;102450.09;10389714;28;20449;-77
2023/09/30 16:43:57;;;;;;;0.45;0.32;;;;;;;22.23;100.00;102448.31;10389729;28;20057;-78
2023/09/30 16:48:59;;;;;;;0.38;0.17;;;;;;;21.45;100.00;102453.25;10389158;28;20053;-77
2023/09/30 16:54:01;;;;;;;0.65;0.32;;;;;;;21.51;100.00;102458.53;10372962;28;20156;-77
2023/09/30 16:59:04;;;;;;;0.20;0.13;;;;;;;22.24;100.00;102450.03;10389423;28;20481;-77
2023/09/30 17:04:05;;;;;;;0.63;0.32;;;;;;;22.48;100.00;102455.38;10389236;28;20048;-77
2023/09/30 17:09:07;;;;;;;1.65;0.30;;;;;;;22.14;100.00;102457.94;10351436;28;20501;-77
2023/09/30 17:14:09;;;;;;;0.13;0.13;;;;;;;21.97;100.00;102449.13;10385322;28;20050;-77
2023/09/30 17:19:11;;;;;;;0.43;0.32;;;;;;;21.87;100.00;102454.34;10389069;28;20073;-77
2023/09/30 17:24:13;;;;;;;0.10;0.10;;;;;;;22.20;100.00;102451.78;10396155;28;20080;-77
2023/09/30 17:29:15;;;;;;;0.35;0.30;;;;;;;21.79;100.00;102461.31;10380570;28;20132;-78
2023/09/30 17:34:17;;;;;;;0.08;0.05;;;;;;;21.56;100.00;102462.03;10381874;28;20121;-77
2023/09/30 17:39:19;;;;;;;0.08;0.03;;;;;;;21.51;100.00;102455.91;10380383;28;20042;-77
2023/09/30 17:44:21;;;;;;;0.00;0.00;;;;;;;21.27;100.00;102468.88;10396759;28;20045;-77
2023/09/30 17:49:23;;;;;;;0.10;0.10;;;;;;;21.17;100.00;102460.06;10396148;28;20049;-77
2023/09/30 17:54:25;;;;;;;0.08;0.08;;;;;;;20.45;100.00;102466.47;10395964;28;20049;-77
2023/09/30 17:59:26;;;;;;;0.38;0.30;;;;;;;20.73;100.00;102461.53;10396147;28;20375;-77
2023/09/30 18:04:28;;;;;;;0.10;0.00;;;;;;;20.96;100.00;102471.31;10395710;28;20081;-77
2023/09/30 18:09:30;;;;;;;0.20;0.10;;;;;;;20.51;100.00;102471.78;10380252;28;20084;-77
2023/09/30 18:14:31;;;;;;;0.20;0.10;;;;;;;19.74;100.00;102476.09;10395277;28;20054;-77
2023/09/30 18:19:33;;;;;;;0.88;0.22;;;;;;;20.33;100.00;102459.34;10378656;28;20052;-77
2023/09/30 18:24:34;;;;;;;0.00;0.00;;;;;;;20.25;100.00;102472.38;10379831;28;20405;-77
2023/09/30 18:29:36;;;;;;;2.17;0.60;;;;;;;19.64;100.00;102475.97;10394898;28;20041;-77
2023/09/30 18:34:38;;;;;;;1.42;0.75;;;;;;;19.82;100.00;102464.88;10378106;28;20504;-77
2023/09/30 18:39:39;;;;;;;0.40;0.30;;;;;;;19.48;100.00;102468.78;10377850;28;20046;-77
2023/09/30 18:44:41;;;;;;;0.13;0.13;;;;;;;19.77;100.00;102465.72;10385015;28;20092;-77
2023/09/30 18:49:43;;;;;;;0.10;0.10;;;;;;;20.17;100.00;102455.72;10336896;28;20398;-77
2023/09/30 18:54:44;;;;;;;0.55;0.55;;;;;;;20.29;100.00;102450.59;10362647;28;20409;-78
2023/09/30 18:59:46;;;;;;;0.68;0.45;;;;;;;20.73;100.00;102456.28;10393522;28;20449;-77
2023/09/30 19:04:48;;;;;;;0.00;0.00;;;;;;;20.49;100.00;102447.31;10393653;28;20077;-77
2023/09/30 19:09:49;;;;;;;0.13;0.08;;;;;;;20.15;100.00;102440.88;10393034;28;20088;-77
2023/09/30 19:14:52;;;;;;;0.30;0.25;;;;;;;20.60;100.00;102440.41;10392989;28;20077;-77
2023/09/30 19:19:54;;;;;;;0.20;0.20;;;;;;;20.47;100.00;102433.31;10392995;28;20076;-77
2023/09/30 19:24:56;;;;;;;0.70;0.57;;;;;;;20.23;100.00;102440.06;10392661;28;20065;-77
2023/09/30 19:29:58;;;;;;;0.25;0.20;;;;;;;20.91;100.00;102435.47;10376188;28;20042;-77
2023/09/30 19:35:04;;;;;;;0.98;0.45;;;;;;;20.67;100.00;102433.50;10392034;28;20477;-77
2023/09/30 19:40:06;;;;;;;0.75;0.38;;;;;;;20.19;100.00;102440.03;10359523;28;20069;-76
2023/09/30 19:45:08;;;;;;;0.57;0.50;;;;;;;20.31;100.00;102428.81;10391406;28;20052;-77
2023/09/30 19:50:10;;;;;;;0.00;0.00;;;;;;;20.06;100.00;102436.44;10363375;28;20137;-77
2023/09/30 19:55:12;;;;;;;0.10;0.10;;;;;;;20.75;100.00;102454.53;10349631;28;20050;-77
2023/09/30 20:00:18;;;;;;;0.47;0.20;;;;;;;20.64;100.00;102445.69;10391175;28;20461;-77
2023/09/30 20:05:19;;;;;;;0.35;0.35;;;;;;;20.32;100.00;102430.56;10391177;28;20046;-77
2023/09/30 20:10:22;;;;;;;0.88;0.43;;;;;;;20.03;100.00;102436.38;10374312;28;20041;-77
2023/09/30 20:15:23;;;;;;;0.95;0.52;;;;;;;20.48;100.00;102445.56;10390564;28;20058;-77
2023/09/30 20:20:26;;;;;;;1.33;0.40;;;;;;;20.51;100.00;102440.38;10390562;28;20052;-77
2023/09/30 20:25:29;;;;;;;0.17;0.10;;;;;;;20.54;100.00;102435.13;10374203;28;20046;-77
2023/09/30 20:30:31;;;;;;;0.32;0.32;;;;;;;19.50;100.00;102436.59;10390031;28;20049;-78
2023/09/30 20:35:35;;;;;;;0.17;0.17;;;;;;;20.03;100.00;102449.47;10357385;28;20096;-77
2023/09/30 20:40:42;;;;;;;0.88;0.43;;;;;;;19.56;100.00;102438.41;10389874;28;20052;-77
2023/09/30 20:45:43;;;;;;;0.60;0.60;;;;;;;20.01;100.00;102452.06;10373508;28;20041;-77
2023/09/30 20:50:45;;;;;;;0.45;0.45;;;;;;;19.57;100.00;102442.78;10389397;28;20108;-77
2023/09/30 20:55:47;;;;;;;0.63;0.50;;;;;;;20.09;100.00;102454.75;10372316;28;20409;-77
2023/09/30 21:00:49;;;;;;;0.93;0.60;;;;;;;20.31;100.00;102441.88;10389415;28;20053;-77
2023/09/30 21:05:53;;;;;;;0.10;0.10;;;;;;;20.51;100.00;102449.94;10389389;28;20057;-77
2023/09/30 21:10:54;;;;;;;2.75;0.10;;;;;;;20.37;100.00;102439.31;10372671;28;20050;-77
2023/09/30 21:15:56;;;;;;;0.00;0.00;;;;;;;20.55;100.00;102436.88;10389194;28;20045;-77
2023/09/30 21:20:58;;;;;;;0.05;0.03;;;;;;;20.12;100.00;102449.56;10372585;28;20132;-77
2023/09/30 21:25:59;;;;;;;0.00;0.00;;;;;;;20.69;100.00;102450.13;10388784;28;20416;-77
2023/09/30 21:31:01;;;;;;;0.00;0.00;;;;;;;20.74;100.00;102451.06;10388709;28;20054;-77
2023/09/30 21:36:03;;;;;;;0.20;0.00;;;;;;;20.43;100.00;102452.50;10373484;28;20042;-77
2023/09/30 21:41:21;;;;;;;1.05;0.10;;;;;;;20.12;100.00;102442.59;10336783;28;20054;-77
2023/09/30 21:46:23;;;;;;;0.15;0.15;;;;;;;20.40;100.00;102436.75;10333115;28;20504;-77
2023/09/30 21:51:25;;;;;;;0.10;0.10;;;;;;;20.12;100.00;102431.25;10348017;28;20078;-77
2023/09/30 21:56:27;;;;;;;1.00;0.32;;;;;;;20.11;100.00;102429.50;10347909;28;20055;-77
2023/09/30 22:01:31;;;;;;;0.47;0.13;;;;;;;20.51;100.00;102426.38;10354970;28;20477;-77
2023/09/30 22:06:33;;;;;;;0.00;0.00;;;;;;;20.23;100.00;102429.59;10356995;28;20046;-77
2023/09/30 22:11:35;;;;;;;0.60;0.32;;;;;;;20.01;100.00;102438.09;10395768;28;20378;-77
2023/09/30 22:16:37;;;;;;;1.13;0.25;;;;;;;20.04;100.00;102423.31;10395711;28;20470;-77
2023/09/30 22:21:39;;;;;;;1.02;0.60;;;;;;;19.71;100.00;102415.91;10395357;28;20124;-77
2023/09/30 22:26:41;;;;;;;0.47;0.47;;;;;;;19.84;100.00;102404.81;10395141;28;20060;-77
2023/09/30 22:31:43;;;;;;;0.45;0.40;;;;;;;20.27;100.00;102400.00;10395129;28;20046;-77
2023/09/30 22:36:46;;;;;;;1.15;0.50;;;;;;;20.29;100.00;102408.72;10362383;28;20116;-77
2023/09/30 22:41:48;;;;;;;0.80;0.40;;;;;;;19.54;100.00;102400.03;10394520;28;20069;-77
2023/09/30 22:46:49;;;;;;;1.38;0.60;;;;;;;19.75;100.00;102391.59;10392656;28;20049;-77
2023/09/30 22:52:13;;;;;;;0.35;0.17;;;;;;;19.75;100.00;102396.81;10387839;28;20499;-78
2023/09/30 22:57:15;;;;;;;0.68;0.68;;;;;;;19.55;100.00;102413.13;10361568;28;20053;-77